GMMX Airport Information

Runway Information
Runway 10 Length 10170 ft width 148 ft
Elevation 1506 ft Threshold 918 ft Heading 96
Runway 28 Length 10170 ft Width 148 ft
Elevation 1545 ft Threshold 0 ft Heading 276
Airport Frequencies
Type APP Name MARRAKECH Frequency 119.7 MHZ
Type TWR Name MARRAKECH Frequency 118.7 MHZ
Airport Navaids
Type NDB Name Marrakech Frequency 267 KHZ
Type VOR-DME Name Marrakech Frequency 113300 KHZ
Airport Weather Information & NOTAM
ADDS - METARS form results

(1810 UTC 22 March 2019)
Data provider http://aviationweather.gov/metar/data/
 
METAR text: GMMX 221800Z 27010KT 9999 FEW026 25/M03 Q1014 NOSIG
Conditions at: GMMX (MARRAKECH/MENARA, MA) observed 1800 UTC 22 March 2019
Temperature: 25.0°C (77°F)
Dewpoint: -3.0°C (27°F) [RH = 15%]
Pressure (altimeter): 29.94 inches Hg (1014.0 mb)
Winds: from the W (270 degrees) at 12 MPH (10 knots; 5.1 m/s)
Visibility: 6 or more miles (10+ km)
Ceiling: at least 12,000 feet AGL
Clouds: few clouds at 2600 feet AGL
Weather: no significant weather observed at this time

METAR text: GMMX 221730Z 28011KT 9999 FEW026 26/M04 Q1014 NOSIG
Conditions at: GMMX (MARRAKECH/MENARA, MA) observed 1730 UTC 22 March 2019
Temperature: 26.0°C (79°F)
Dewpoint: -4.0°C (25°F) [RH = 14%]
Pressure (altimeter): 29.94 inches Hg (1014.0 mb)
Winds: from the W (280 degrees) at 13 MPH (11 knots; 5.7 m/s)
Visibility: 6 or more miles (10+ km)
Ceiling: at least 12,000 feet AGL
Clouds: few clouds at 2600 feet AGL
Weather: no significant weather observed at this time

Forecast for: GMMX (MARRAKECH/MENARA, MA)
Text: TAF GMMX 221700Z 2218/2324 28006KT 8000 NSC
Forecast period: 1800 UTC 22 March 2019 to 0000 UTC 24 March 2019
Forecast type: FROM: standard forecast or significant change
Winds: from the W (280 degrees) at 7 MPH (6 knots; 3.1 m/s)
Visibility: 5 miles (8 km)
Ceiling: unknown
Clouds: missing
Weather: no significant weather forecast for this period
Text: TEMPO 2311/2315 10016G26KT
Forecast period: 1100 to 1500 UTC 23 March 2019
Forecast type: TEMPORARY: The following changes expected for less than half the time period
Winds: from the E (100 degrees) at 18 MPH (16 knots; 8.2 m/s)
gusting to 30 MPH (26 knots; 13.4 m/s)
Visibility: missing
Ceiling: unknown
Clouds: missing
Weather: no significant weather forecast for this period
Text: TEMPO 2315/2318 5000 TSRA SCT026 FEW030CB
Forecast period: 1500 to 1800 UTC 23 March 2019
Forecast type: TEMPORARY: The following changes expected for less than half the time period
Visibility: 3 miles (5 km)
Ceiling: at least 12,000 feet AGL
Clouds: scattered clouds at 2600 feet AGL
few clouds at 3000 feet AGL
Weather: TSRA  (rain associated with thunderstorm(s))